sensor_id;sensor_type;location;lat;lon;timestamp;P1;P4;P2;P0;N10;N4;N25;N1;N05;TS
76200;SPS30;64981;52.930;9.266;2023-05-29T00:01:07;5.49;5.10;4.31;3.16;25.28;25.22;25.02;24.02;19.31;0.71
76200;SPS30;64981;52.930;9.266;2023-05-29T00:03:34;4.92;4.57;3.88;2.87;22.95;22.90;22.72;21.84;17.61;0.70
76200;SPS30;64981;52.930;9.266;2023-05-29T00:06:01;5.25;4.90;4.19;3.14;25.12;25.07;24.89;23.98;19.44;0.69
76200;SPS30;64981;52.930;9.266;2023-05-29T00:08:28;5.36;4.97;4.19;3.05;24.42;24.37;24.17;23.18;18.59;0.71
76200;SPS30;64981;52.930;9.266;2023-05-29T00:10:53;5.32;4.91;4.10;2.93;23.46;23.40;23.19;22.17;17.65;0.72
76200;SPS30;64981;52.930;9.266;2023-05-29T00:13:19;5.11;4.72;3.95;2.83;22.66;22.61;22.41;21.43;17.08;0.72
76200;SPS30;64981;52.930;9.266;2023-05-29T00:15:45;5.54;5.13;4.32;3.15;25.16;25.10;24.89;23.87;19.13;0.71
76200;SPS30;64981;52.930;9.266;2023-05-29T00:18:11;5.11;4.75;4.04;2.99;23.90;23.85;23.67;22.75;18.36;0.69
76200;SPS30;64981;52.930;9.266;2023-05-29T00:20:37;5.34;4.95;4.16;3.01;24.09;24.03;23.83;22.82;18.26;0.70
76200;SPS30;64981;52.930;9.266;2023-05-29T00:23:03;5.99;5.50;4.52;3.13;25.07;25.00;24.75;23.52;18.47;0.73
76200;SPS30;64981;52.930;9.266;2023-05-29T00:25:31;5.47;5.00;4.08;2.78;22.23;22.17;21.93;20.77;16.19;0.73
76200;SPS30;64981;52.930;9.266;2023-05-29T00:27:57;6.26;5.69;4.57;3.01;24.08;24.00;23.71;22.32;17.13;0.75
76200;SPS30;64981;52.930;9.266;2023-05-29T00:30:23;6.18;5.66;4.63;3.17;25.39;25.31;25.05;23.75;18.56;0.74
76200;SPS30;64981;52.930;9.266;2023-05-29T00:32:48;5.91;5.41;4.41;3.01;24.05;23.98;23.72;22.48;17.53;0.75
76200;SPS30;64981;52.930;9.266;2023-05-29T00:35:17;5.77;5.29;4.34;2.99;23.92;23.86;23.61;22.42;17.56;0.75
76200;SPS30;64981;52.930;9.266;2023-05-29T00:37:43;6.01;5.50;4.47;3.03;24.26;24.19;23.93;22.65;17.62;0.76
76200;SPS30;64981;52.930;9.266;2023-05-29T00:40:09;6.56;5.98;4.84;3.25;26.01;25.93;25.63;24.21;18.75;0.76
76200;SPS30;64981;52.930;9.266;2023-05-29T00:42:36;6.90;6.26;4.99;3.24;25.96;25.87;25.55;23.98;18.28;0.78
76200;SPS30;64981;52.930;9.266;2023-05-29T00:45:02;6.19;5.62;4.48;2.91;23.30;23.22;22.93;21.52;16.41;0.79
76200;SPS30;64981;52.930;9.266;2023-05-29T00:47:28;6.06;5.50;4.39;2.87;22.94;22.86;22.58;21.21;16.20;0.79
76200;SPS30;64981;52.930;9.266;2023-05-29T00:49:55;6.22;5.61;4.40;2.75;22.04;21.95;21.65;20.16;15.07;0.82
76200;SPS30;64981;52.930;9.266;2023-05-29T00:52:23;6.14;5.55;4.36;2.75;21.99;21.90;21.60;20.14;15.11;0.81
76200;SPS30;64981;52.930;9.266;2023-05-29T00:54:51;6.76;6.13;4.89;3.17;25.39;25.30;24.99;23.45;17.87;0.79
76200;SPS30;64981;52.930;9.266;2023-05-29T00:57:17;6.71;6.08;4.83;3.11;24.89;24.80;24.48;22.94;17.41;0.79
76200;SPS30;64981;52.930;9.266;2023-05-29T00:59:44;6.47;5.88;4.72;3.10;24.84;24.76;24.46;23.01;17.65;0.78
76200;SPS30;64981;52.930;9.266;2023-05-29T01:02:12;6.28;5.70;4.54;2.95;23.63;23.55;23.26;21.83;16.64;0.79
76200;SPS30;64981;52.930;9.266;2023-05-29T01:04:41;6.58;5.99;4.80;3.16;25.28;25.19;24.89;23.42;17.97;0.76
76200;SPS30;64981;52.930;9.266;2023-05-29T01:07:10;6.38;5.80;4.64;3.04;24.29;24.21;23.91;22.48;17.19;0.76
76200;SPS30;64981;52.930;9.266;2023-05-29T01:09:35;5.38;4.91;3.97;2.66;21.30;21.24;21.00;19.83;15.34;0.75
76200;SPS30;64981;52.930;9.266;2023-05-29T01:12:06;5.48;4.99;4.01;2.65;21.20;21.13;20.88;19.66;15.11;0.78
76200;SPS30;64981;52.930;9.266;2023-05-29T01:20:37;6.27;5.67;4.47;2.83;22.68;22.59;22.29;20.81;15.66;0.80
76200;SPS30;64981;52.930;9.266;2023-05-29T01:26:18;5.54;5.03;4.02;2.62;20.99;20.92;20.66;19.41;14.83;0.77
76200;SPS30;64981;52.930;9.266;2023-05-29T01:28:52;5.97;5.44;4.38;2.91;23.27;23.20;22.93;21.61;16.65;0.76
76200;SPS30;64981;52.930;9.266;2023-05-29T01:31:21;5.95;5.39;4.28;2.76;22.06;21.98;21.70;20.33;15.42;0.78
76200;SPS30;64981;52.930;9.266;2023-05-29T01:33:54;5.90;5.34;4.24;2.73;21.81;21.74;21.46;20.09;15.24;0.79
76200;SPS30;64981;52.930;9.266;2023-05-29T01:36:21;5.82;5.25;4.12;2.57;20.56;20.48;20.20;18.80;14.04;0.81
76200;SPS30;64981;52.930;9.266;2023-05-29T01:38:48;5.75;5.17;4.01;2.45;19.60;19.52;19.23;17.81;13.14;0.83
76200;SPS30;64981;52.930;9.266;2023-05-29T01:41:16;5.90;5.33;4.17;2.61;20.85;20.77;20.48;19.06;14.23;0.81
76200;SPS30;64981;52.930;9.266;2023-05-29T01:43:43;6.43;5.81;4.56;2.86;22.88;22.79;22.47;20.94;15.68;0.80
76200;SPS30;64981;52.930;9.266;2023-05-29T01:46:12;5.73;5.17;4.06;2.54;20.33;20.25;19.96;18.59;13.90;0.81
76200;SPS30;64981;52.930;9.266;2023-05-29T01:48:40;6.20;5.57;4.32;2.63;21.01;20.93;20.61;19.07;14.04;0.83
76200;SPS30;64981;52.930;9.266;2023-05-29T01:51:07;6.01;5.41;4.21;2.60;20.77;20.69;20.39;18.92;14.03;0.81
76200;SPS30;64981;52.930;9.266;2023-05-29T01:53:34;5.71;5.15;4.03;2.51;20.06;19.98;19.70;18.32;13.65;0.80
76200;SPS30;64981;52.930;9.266;2023-05-29T01:55:59;6.60;5.92;4.57;2.74;21.94;21.85;21.50;19.85;14.50;0.83
76200;SPS30;64981;52.930;9.266;2023-05-29T01:58:26;7.01;6.27;4.81;2.85;22.83;22.73;22.36;20.57;14.92;0.84
76200;SPS30;64981;52.930;9.266;2023-05-29T02:00:54;7.24;6.48;4.97;2.94;23.51;23.40;23.02;21.17;15.32;0.85
76200;SPS30;64981;52.930;9.266;2023-05-29T02:03:21;6.78;6.08;4.67;2.79;22.34;22.24;21.89;20.18;14.70;0.83
76200;SPS30;64981;52.930;9.266;2023-05-29T02:05:47;6.00;5.40;4.21;2.60;20.81;20.73;20.42;18.97;14.08;0.82
76200;SPS30;64981;52.930;9.266;2023-05-29T02:08:13;5.86;5.30;4.18;2.66;21.27;21.19;20.90;19.53;14.72;0.79
76200;SPS30;64981;52.930;9.266;2023-05-29T02:10:38;6.08;5.50;4.34;2.75;22.04;21.95;21.66;20.23;15.24;0.80
76200;SPS30;64981;52.930;9.266;2023-05-29T02:13:04;5.87;5.30;4.18;2.64;21.12;21.04;20.76;19.37;14.56;0.81
76200;SPS30;64981;52.930;9.266;2023-05-29T02:15:29;6.01;5.41;4.21;2.59;20.75;20.67;20.36;18.90;14.01;0.83
76200;SPS30;64981;52.930;9.266;2023-05-29T02:17:55;6.03;5.43;4.22;2.59;20.74;20.65;20.35;18.87;13.96;0.83
76200;SPS30;64981;52.930;9.266;2023-05-29T02:20:21;6.33;5.70;4.43;2.72;21.76;21.67;21.35;19.80;14.65;0.83
76200;SPS30;64981;52.930;9.266;2023-05-29T02:22:46;6.43;5.76;4.44;2.65;21.24;21.14;20.81;19.18;13.98;0.84
76200;SPS30;64981;52.930;9.266;2023-05-29T02:25:12;6.35;5.70;4.40;2.65;21.23;21.14;20.81;19.22;14.07;0.84
76200;SPS30;64981;52.930;9.266;2023-05-29T02:27:37;6.10;5.49;4.27;2.63;21.06;20.97;20.66;19.17;14.21;0.83
76200;SPS30;64981;52.930;9.266;2023-05-29T02:30:03;5.68;5.13;4.02;2.51;20.10;20.03;19.74;18.38;13.74;0.82
76200;SPS30;64981;52.930;9.266;2023-05-29T02:32:30;5.91;5.32;4.13;2.53;20.23;20.14;19.84;18.39;13.58;0.84
76200;SPS30;64981;52.930;9.266;2023-05-29T02:34:57;7.13;6.38;4.89;2.89;23.11;23.01;22.63;20.81;15.05;0.86
76200;SPS30;64981;52.930;9.266;2023-05-29T02:37:22;6.55;5.87;4.53;2.72;21.74;21.64;21.30;19.66;14.36;0.85
76200;SPS30;64981;52.930;9.266;2023-05-29T02:39:50;6.03;5.40;4.13;2.44;19.50;19.42;19.10;17.55;12.69;0.86
76200;SPS30;64981;52.930;9.266;2023-05-29T02:42:16;5.94;5.31;4.06;2.38;19.02;18.93;18.61;17.08;12.30;0.85
76200;SPS30;64981;52.930;9.266;2023-05-29T02:44:41;6.82;6.10;4.67;2.76;22.08;21.98;21.62;19.88;14.38;0.85
76200;SPS30;64981;52.930;9.266;2023-05-29T02:47:07;7.14;6.38;4.87;2.85;22.84;22.74;22.35;20.51;14.76;0.83
76200;SPS30;64981;52.930;9.266;2023-05-29T02:49:32;6.67;5.98;4.61;2.76;22.09;22.00;21.65;19.97;14.58;0.83
76200;SPS30;64981;52.930;9.266;2023-05-29T02:51:58;6.23;5.57;4.26;2.51;20.10;20.01;19.67;18.08;13.06;0.84
76200;SPS30;64981;52.930;9.266;2023-05-29T02:54:24;7.54;6.73;5.12;2.96;23.72;23.61;23.20;21.24;15.18;0.87
76200;SPS30;64981;52.930;9.266;2023-05-29T02:56:50;6.76;6.04;4.61;2.70;21.61;21.51;21.15;19.41;13.97;0.87
76200;SPS30;64981;52.930;9.266;2023-05-29T02:59:16;6.14;5.49;4.19;2.45;19.65;19.56;19.23;17.65;12.70;0.87
76200;SPS30;64981;52.930;9.266;2023-05-29T03:01:42;6.66;5.98;4.63;2.81;22.50;22.41;22.07;20.41;15.01;0.83
76200;SPS30;64981;52.930;9.266;2023-05-29T03:04:08;6.45;5.80;4.49;2.73;21.84;21.75;21.42;19.82;14.59;0.84
76200;SPS30;64981;52.930;9.266;2023-05-29T03:06:35;5.99;5.37;4.13;2.48;19.83;19.74;19.43;17.92;13.08;0.85
76200;SPS30;64981;52.930;9.266;2023-05-29T03:09:02;6.52;5.86;4.54;2.76;22.13;22.04;21.70;20.09;14.79;0.84
76200;SPS30;64981;52.930;9.266;2023-05-29T03:11:30;6.55;5.89;4.57;2.79;22.34;22.24;21.91;20.30;14.98;0.82
76200;SPS30;64981;52.930;9.266;2023-05-29T03:13:56;6.70;6.04;4.73;2.95;23.60;23.50;23.17;21.56;16.09;0.81
76200;SPS30;64981;52.930;9.266;2023-05-29T03:16:21;5.94;5.39;4.29;2.77;22.20;22.12;21.84;20.48;15.58;0.79
76200;SPS30;64981;52.930;9.266;2023-05-29T03:18:47;6.79;6.12;4.80;3.00;24.01;23.92;23.58;21.96;16.41;0.82
76200;SPS30;64981;52.930;9.266;2023-05-29T03:21:13;6.30;5.69;4.46;2.78;22.26;22.17;21.86;20.35;15.20;0.82
76200;SPS30;64981;52.930;9.266;2023-05-29T03:23:38;6.19;5.58;4.36;2.71;21.67;21.59;21.28;19.78;14.73;0.82
76200;SPS30;64981;52.930;9.266;2023-05-29T03:26:04;6.54;5.86;4.50;2.67;21.38;21.28;20.94;19.28;14.00;0.85
76200;SPS30;64981;52.930;9.266;2023-05-29T03:28:31;7.25;6.48;4.97;2.93;23.49;23.38;23.00;21.15;15.31;0.87
76200;SPS30;64981;52.930;9.266;2023-05-29T03:30:56;7.16;6.39;4.86;2.81;22.51;22.41;22.02;20.15;14.41;0.87
76200;SPS30;64981;52.930;9.266;2023-05-29T03:33:22;6.45;5.76;4.39;2.56;20.54;20.44;20.10;18.43;13.24;0.85
76200;SPS30;64981;52.930;9.266;2023-05-29T03:35:48;6.95;6.22;4.78;2.84;22.76;22.66;22.30;20.53;14.92;0.84
76200;SPS30;64981;52.930;9.266;2023-05-29T03:38:14;6.95;6.24;4.83;2.92;23.35;23.25;22.89;21.16;15.52;0.83
76200;SPS30;64981;52.930;9.266;2023-05-29T03:40:40;6.67;5.99;4.65;2.84;22.69;22.60;22.26;20.61;15.20;0.84
76200;SPS30;64981;52.930;9.266;2023-05-29T03:43:05;6.99;6.25;4.77;2.79;22.35;22.24;21.87;20.07;14.44;0.88
76200;SPS30;64981;52.930;9.266;2023-05-29T03:45:31;7.54;6.72;5.08;2.90;23.24;23.12;22.71;20.72;14.69;0.90
76200;SPS30;64981;52.930;9.266;2023-05-29T03:47:57;7.18;6.43;4.93;2.91;23.32;23.22;22.83;21.00;15.21;0.87
76200;SPS30;64981;52.930;9.266;2023-05-29T03:50:22;6.85;6.15;4.75;2.87;22.99;22.89;22.53;20.83;15.27;0.86
76200;SPS30;64981;52.930;9.266;2023-05-29T03:52:48;6.20;5.59;4.39;2.76;22.06;21.98;21.67;20.20;15.13;0.82
76200;SPS30;64981;52.930;9.266;2023-05-29T03:55:14;6.07;5.48;4.31;2.71;21.68;21.60;21.30;19.86;14.89;0.81
76200;SPS30;64981;52.930;9.266;2023-05-29T03:57:40;6.64;5.96;4.59;2.76;22.08;21.99;21.64;19.98;14.60;0.84
76200;SPS30;64981;52.930;9.266;2023-05-29T04:00:07;6.49;5.83;4.53;2.76;22.07;21.98;21.65;20.04;14.77;0.82
76200;SPS30;64981;52.930;9.266;2023-05-29T04:02:36;6.56;5.88;4.52;2.69;21.58;21.48;21.14;19.48;14.18;0.85
76200;SPS30;64981;52.930;9.266;2023-05-29T04:05:04;6.94;6.20;4.74;2.79;22.31;22.21;21.84;20.06;14.47;0.87
76200;SPS30;64981;52.930;9.266;2023-05-29T04:07:32;6.78;6.07;4.66;2.77;22.19;22.09;21.74;20.02;14.54;0.85
76200;SPS30;64981;52.930;9.266;2023-05-29T04:09:58;6.21;5.57;4.30;2.58;20.67;20.58;20.25;18.69;13.67;0.85
76200;SPS30;64981;52.930;9.266;2023-05-29T04:12:24;7.02;6.30;4.87;2.93;23.47;23.37;23.01;21.25;15.56;0.85
76200;SPS30;64981;52.930;9.266;2023-05-29T04:14:49;7.22;6.47;4.98;2.98;23.88;23.78;23.40;21.59;15.75;0.85
76200;SPS30;64981;52.930;9.266;2023-05-29T04:17:15;7.17;6.44;4.98;3.01;24.09;23.99;23.62;21.83;16.01;0.85
76200;SPS30;64981;52.930;9.266;2023-05-29T04:19:41;6.36;5.72;4.45;2.73;21.87;21.78;21.46;19.90;14.73;0.83
76200;SPS30;64981;52.930;9.266;2023-05-29T04:22:06;6.82;6.11;4.69;2.78;22.30;22.20;21.84;20.10;14.59;0.84
76200;SPS30;64981;52.930;9.266;2023-05-29T04:24:32;7.63;6.82;5.21;3.05;24.41;24.30;23.89;21.93;15.79;0.85
76200;SPS30;64981;52.930;9.266;2023-05-29T04:26:58;6.81;6.09;4.65;2.71;21.74;21.64;21.27;19.51;14.03;0.87
76200;SPS30;64981;52.930;9.266;2023-05-29T04:29:26;6.78;6.07;4.66;2.76;22.08;21.98;21.62;19.89;14.42;0.86
76200;SPS30;64981;52.930;9.266;2023-05-29T04:31:51;6.36;5.72;4.44;2.71;21.71;21.62;21.29;19.72;14.55;0.84
76200;SPS30;64981;52.930;9.266;2023-05-29T04:34:17;6.23;5.63;4.44;2.81;22.52;22.44;22.13;20.67;15.56;0.81
76200;SPS30;64981;52.930;9.266;2023-05-29T04:36:42;6.45;5.83;4.59;2.90;23.20;23.12;22.80;21.28;15.99;0.82
76200;SPS30;64981;52.930;9.266;2023-05-29T04:39:09;6.69;6.00;4.61;2.74;21.95;21.85;21.50;19.80;14.40;0.85
76200;SPS30;64981;52.930;9.266;2023-05-29T04:41:35;7.11;6.36;4.86;2.86;22.87;22.76;22.38;20.55;14.83;0.86
76200;SPS30;64981;52.930;9.266;2023-05-29T04:44:03;7.78;6.96;5.32;3.13;25.05;24.94;24.52;22.53;16.26;0.86
76200;SPS30;64981;52.930;9.266;2023-05-29T04:46:29;7.37;6.61;5.11;3.09;24.73;24.62;24.24;22.40;16.43;0.86
76200;SPS30;64981;52.930;9.266;2023-05-29T04:48:55;7.60;6.78;5.15;2.97;23.76;23.64;23.23;21.24;15.14;0.90
76200;SPS30;64981;52.930;9.266;2023-05-29T04:51:21;9.00;8.01;6.04;3.42;27.40;27.26;26.76;24.37;17.18;0.90
76200;SPS30;64981;52.930;9.266;2023-05-29T04:53:47;7.50;6.71;5.13;3.02;24.15;24.04;23.64;21.71;15.67;0.86
76200;SPS30;64981;52.930;9.266;2023-05-29T04:56:14;7.45;6.68;5.14;3.08;24.68;24.58;24.19;22.31;16.29;0.83
76200;SPS30;64981;52.930;9.266;2023-05-29T04:58:40;7.28;6.51;4.96;2.89;23.16;23.05;22.66;20.78;14.92;0.85
76200;SPS30;64981;52.930;9.266;2023-05-29T05:01:06;7.63;6.82;5.20;3.04;24.36;24.25;23.84;21.87;15.73;0.87
76200;SPS30;64981;52.930;9.266;2023-05-29T05:03:33;7.07;6.34;4.87;2.90;23.18;23.08;22.71;20.91;15.20;0.85
76200;SPS30;64981;52.930;9.266;2023-05-29T05:06:00;7.81;6.99;5.36;3.17;25.36;25.25;24.83;22.84;16.54;0.85
76200;SPS30;64981;52.930;9.266;2023-05-29T05:08:28;6.93;6.20;4.76;2.83;22.64;22.54;22.17;20.41;14.82;0.85
76200;SPS30;64981;52.930;9.266;2023-05-29T05:10:54;7.33;6.56;5.03;2.97;23.79;23.69;23.30;21.42;15.51;0.86
76200;SPS30;64981;52.930;9.266;2023-05-29T05:13:21;7.27;6.52;5.03;3.02;24.18;24.08;23.70;21.88;16.00;0.86
76200;SPS30;64981;52.930;9.266;2023-05-29T05:15:46;7.07;6.35;4.93;3.00;23.99;23.89;23.53;21.78;16.04;0.85
76200;SPS30;64981;52.930;9.266;2023-05-29T05:18:12;7.26;6.49;4.97;2.93;23.47;23.37;22.98;21.13;15.28;0.87
76200;SPS30;64981;52.930;9.266;2023-05-29T05:20:38;8.00;7.17;5.54;3.33;26.67;26.56;26.14;24.14;17.66;0.84
76200;SPS30;64981;52.930;9.266;2023-05-29T05:23:03;7.67;6.86;5.27;3.12;24.99;24.88;24.47;22.52;16.33;0.86
76200;SPS30;64981;52.930;9.266;2023-05-29T05:25:29;7.86;7.02;5.34;3.10;24.79;24.67;24.24;22.20;15.89;0.87
76200;SPS30;64981;52.930;9.266;2023-05-29T05:27:54;7.43;6.64;5.06;2.95;23.58;23.47;23.07;21.14;15.17;0.87
76200;SPS30;64981;52.930;9.266;2023-05-29T05:30:20;7.81;7.00;5.38;3.21;25.72;25.61;25.20;23.22;16.91;0.86
76200;SPS30;64981;52.930;9.266;2023-05-29T05:32:45;7.09;6.38;4.94;3.01;24.10;24.00;23.63;21.88;16.12;0.86
76200;SPS30;64981;52.930;9.266;2023-05-29T05:35:11;7.18;6.44;4.98;3.01;24.06;23.96;23.59;21.80;15.98;0.86
76200;SPS30;64981;52.930;9.266;2023-05-29T05:37:37;7.78;6.98;5.37;3.21;25.71;25.60;25.19;23.23;16.93;0.87
76200;SPS30;64981;52.930;9.266;2023-05-29T05:40:03;7.77;6.99;5.45;3.36;26.93;26.82;26.43;24.54;18.21;0.84
76200;SPS30;64981;52.930;9.266;2023-05-29T05:42:31;7.79;6.98;5.38;3.22;25.81;25.70;25.30;23.34;17.03;0.87
76200;SPS30;64981;52.930;9.266;2023-05-29T05:44:57;7.60;6.82;5.27;3.19;25.51;25.40;25.01;23.12;16.96;0.85
76200;SPS30;64981;52.930;9.266;2023-05-29T05:47:23;6.92;6.22;4.83;2.95;23.60;23.50;23.15;21.44;15.81;0.83
76200;SPS30;64981;52.930;9.266;2023-05-29T05:49:48;6.96;6.29;4.94;3.11;24.86;24.77;24.43;22.77;17.07;0.80
76200;SPS30;64981;52.930;9.266;2023-05-29T05:52:17;7.57;6.83;5.35;3.33;26.66;26.56;26.18;24.36;18.17;0.83
76200;SPS30;64981;52.930;9.266;2023-05-29T05:54:43;6.84;6.19;4.90;3.13;25.05;24.96;24.63;23.03;17.41;0.83
76200;SPS30;64981;52.930;9.266;2023-05-29T05:57:08;7.64;6.90;5.42;3.41;27.29;27.18;26.81;24.99;18.74;0.82
76200;SPS30;64981;52.930;9.266;2023-05-29T05:59:34;7.14;6.43;5.00;3.08;24.61;24.52;24.15;22.41;16.60;0.83
76200;SPS30;64981;52.930;9.266;2023-05-29T06:02:00;7.67;6.91;5.39;3.32;26.60;26.50;26.11;24.24;17.99;0.84
76200;SPS30;64981;52.930;9.266;2023-05-29T06:04:25;7.81;7.03;5.46;3.35;26.81;26.70;26.30;24.38;18.03;0.86
76200;SPS30;64981;52.930;9.266;2023-05-29T06:06:51;6.83;6.14;4.77;2.92;23.35;23.26;22.91;21.23;15.68;0.84
76200;SPS30;64981;52.930;9.266;2023-05-29T06:09:16;6.61;6.00;4.78;3.09;24.76;24.68;24.36;22.85;17.40;0.81
76200;SPS30;64981;52.930;9.266;2023-05-29T06:11:42;6.18;5.66;4.61;3.13;25.07;24.99;24.72;23.41;18.24;0.77
76200;SPS30;64981;52.930;9.266;2023-05-29T06:14:08;6.92;6.29;5.04;3.30;26.41;26.32;26.00;24.44;18.71;0.79
76200;SPS30;64981;52.930;9.266;2023-05-29T06:16:34;7.03;6.37;5.04;3.23;25.85;25.76;25.43;23.79;18.01;0.81
76200;SPS30;64981;52.930;9.266;2023-05-29T06:18:59;7.21;6.49;5.06;3.12;24.97;24.87;24.51;22.75;16.87;0.83
76200;SPS30;64981;52.930;9.266;2023-05-29T06:21:25;7.72;6.93;5.37;3.26;26.10;25.99;25.59;23.68;17.42;0.84
76200;SPS30;64981;52.930;9.266;2023-05-29T06:23:52;7.12;6.40;4.98;3.05;24.39;24.29;23.93;22.18;16.39;0.83
76200;SPS30;64981;52.930;9.266;2023-05-29T06:26:17;7.78;6.99;5.42;3.31;26.49;26.38;25.98;24.06;17.75;0.84
76200;SPS30;64981;52.930;9.266;2023-05-29T06:28:43;7.45;6.69;5.17;3.13;25.03;24.92;24.54;22.68;16.63;0.86
76200;SPS30;64981;52.930;9.266;2023-05-29T06:31:08;7.22;6.48;5.00;3.01;24.07;23.97;23.60;21.79;15.94;0.86
76200;SPS30;64981;52.930;9.266;2023-05-29T06:33:35;6.90;6.22;4.87;3.03;24.22;24.13;23.78;22.12;16.48;0.83
76200;SPS30;64981;52.930;9.266;2023-05-29T06:36:01;7.06;6.39;5.06;3.23;25.83;25.73;25.39;23.74;17.94;0.80
76200;SPS30;64981;52.930;9.266;2023-05-29T06:38:26;7.09;6.40;5.01;3.13;25.05;24.95;24.60;22.90;17.11;0.82
76200;SPS30;64981;52.930;9.266;2023-05-29T06:40:52;6.83;6.17;4.88;3.10;24.82;24.73;24.39;22.79;17.19;0.80
76200;SPS30;64981;52.930;9.266;2023-05-29T06:43:17;6.45;5.84;4.61;2.94;23.51;23.42;23.11;21.60;16.30;0.80
76200;SPS30;64981;52.930;9.266;2023-05-29T06:45:43;6.64;6.02;4.79;3.09;24.75;24.66;24.35;22.82;17.34;0.79
76200;SPS30;64981;52.930;9.266;2023-05-29T06:48:08;6.43;5.83;4.63;2.99;23.89;23.80;23.50;22.02;16.72;0.80
76200;SPS30;64981;52.930;9.266;2023-05-29T06:50:34;6.76;6.13;4.88;3.15;25.22;25.13;24.81;23.26;17.68;0.81
76200;SPS30;64981;52.930;9.266;2023-05-29T06:53:00;6.91;6.25;4.92;3.11;24.87;24.78;24.44;22.80;17.14;0.83
76200;SPS30;64981;52.930;9.266;2023-05-29T06:55:25;7.31;6.57;5.09;3.10;24.84;24.73;24.36;22.55;16.62;0.86
76200;SPS30;64981;52.930;9.266;2023-05-29T06:57:51;7.22;6.52;5.12;3.21;25.68;25.59;25.23;23.51;17.60;0.84
76200;SPS30;64981;52.930;9.266;2023-05-29T07:00:17;7.81;7.05;5.53;3.47;27.73;27.63;27.24;25.37;18.98;0.84
76200;SPS30;64981;52.930;9.266;2023-05-29T07:02:43;6.99;6.35;5.07;3.30;26.43;26.34;26.01;24.43;18.64;0.79
76200;SPS30;64981;52.930;9.266;2023-05-29T07:05:08;6.27;5.72;4.62;3.09;24.74;24.66;24.38;23.02;17.79;0.77
76200;SPS30;64981;52.930;9.266;2023-05-29T07:07:34;6.05;5.52;4.47;3.01;24.07;24.00;23.73;22.42;17.37;0.78
76200;SPS30;64981;52.930;9.266;2023-05-29T07:10:00;6.32;5.77;4.67;3.13;25.04;24.96;24.68;23.31;18.03;0.78
76200;SPS30;64981;52.930;9.266;2023-05-29T07:12:26;5.65;5.17;4.21;2.86;22.88;22.81;22.57;21.37;16.64;0.76
76200;SPS30;64981;52.930;9.266;2023-05-29T07:14:51;7.23;6.58;5.30;3.51;28.07;27.98;27.65;26.05;20.04;0.78
76200;SPS30;64981;52.930;9.266;2023-05-29T07:17:17;5.96;5.42;4.36;2.89;23.12;23.05;22.77;21.46;16.51;0.79
76200;SPS30;64981;52.930;9.266;2023-05-29T07:19:43;6.45;5.86;4.68;3.06;24.51;24.43;24.13;22.67;17.33;0.81
76200;SPS30;64981;52.930;9.266;2023-05-29T07:22:08;6.31;5.76;4.66;3.12;24.97;24.89;24.61;23.24;17.98;0.80
76200;SPS30;64981;52.930;9.266;2023-05-29T07:24:34;6.18;5.64;4.57;3.08;24.67;24.59;24.32;22.99;17.83;0.79
76200;SPS30;64981;52.930;9.266;2023-05-29T07:27:00;6.11;5.57;4.50;3.01;24.09;24.02;23.75;22.42;17.33;0.78
76200;SPS30;64981;52.930;9.266;2023-05-29T07:29:25;6.42;5.81;4.62;2.97;23.78;23.70;23.40;21.92;16.63;0.80
76200;SPS30;64981;52.930;9.266;2023-05-29T07:31:51;7.19;6.52;5.18;3.35;26.77;26.68;26.34;24.69;18.76;0.80
76200;SPS30;64981;52.930;9.266;2023-05-29T07:34:16;6.52;5.94;4.79;3.19;25.49;25.40;25.11;23.67;18.25;0.80
76200;SPS30;64981;52.930;9.266;2023-05-29T07:37:00;6.04;5.52;4.47;3.00;24.02;23.95;23.68;22.37;17.33;0.78
76200;SPS30;64981;52.930;9.266;2023-05-29T07:39:28;5.62;5.17;4.27;2.99;23.90;23.84;23.61;22.48;17.73;0.76
76200;SPS30;64981;52.930;9.266;2023-05-29T07:41:53;5.73;5.27;4.37;3.09;24.72;24.65;24.42;23.29;18.44;0.75
76200;SPS30;64981;52.930;9.266;2023-05-29T07:44:19;5.27;4.86;4.03;2.85;22.79;22.73;22.52;21.48;17.01;0.75
76200;SPS30;64981;52.930;9.266;2023-05-29T07:46:45;5.37;4.95;4.11;2.90;23.22;23.16;22.94;21.88;17.33;0.75
76200;SPS30;64981;52.930;9.266;2023-05-29T07:49:11;5.81;5.34;4.38;3.04;24.28;24.21;23.97;22.77;17.88;0.76
76200;SPS30;64981;52.930;9.266;2023-05-29T07:51:36;5.90;5.44;4.52;3.21;25.66;25.60;25.36;24.20;19.20;0.74
76200;SPS30;64981;52.930;9.266;2023-05-29T07:54:02;5.13;4.74;3.98;2.87;22.94;22.88;22.68;21.71;17.34;0.73
76200;SPS30;64981;52.930;9.266;2023-05-29T07:56:28;5.88;5.44;4.56;3.29;26.28;26.21;25.98;24.87;19.85;0.73
76200;SPS30;64981;52.930;9.266;2023-05-29T07:58:54;6.12;5.62;4.62;3.20;25.61;25.54;25.28;24.03;18.87;0.76
76200;SPS30;64981;52.930;9.266;2023-05-29T08:01:21;5.83;5.37;4.45;3.14;25.12;25.06;24.82;23.67;18.73;0.75
76200;SPS30;64981;52.930;9.266;2023-05-29T08:03:47;5.92;5.45;4.52;3.19;25.49;25.43;25.19;24.01;19.00;0.77
76200;SPS30;64981;52.930;9.266;2023-05-29T08:06:13;5.48;5.05;4.19;2.96;23.70;23.64;23.42;22.34;17.70;0.77
76200;SPS30;64981;52.930;9.266;2023-05-29T08:08:39;5.73;5.27;4.36;3.07;24.51;24.45;24.22;23.07;18.23;0.76
76200;SPS30;64981;52.930;9.266;2023-05-29T08:11:04;5.67;5.20;4.27;2.95;23.57;23.51;23.27;22.10;17.33;0.78
76200;SPS30;64981;52.930;9.266;2023-05-29T08:13:30;6.21;5.66;4.57;3.04;24.32;24.24;23.96;22.60;17.43;0.81
76200;SPS30;64981;52.930;9.266;2023-05-29T08:15:56;5.55;5.08;4.16;2.85;22.83;22.77;22.53;21.37;16.72;0.77
76200;SPS30;64981;52.930;9.266;2023-05-29T08:18:24;5.24;4.82;3.98;2.79;22.30;22.24;22.03;20.97;16.55;0.76
76200;SPS30;64981;52.930;9.266;2023-05-29T08:20:51;5.26;4.86;4.06;2.91;23.29;23.23;23.03;22.02;17.54;0.75
76200;SPS30;64981;52.930;9.266;2023-05-29T08:23:17;4.99;4.61;3.87;2.79;22.30;22.25;22.05;21.11;16.85;0.75
76200;SPS30;64981;52.930;9.266;2023-05-29T08:25:43;4.70;4.36;3.70;2.72;21.76;21.71;21.54;20.69;16.65;0.74
76200;SPS30;64981;52.930;9.266;2023-05-29T08:28:10;5.14;4.78;4.05;2.99;23.87;23.82;23.63;22.71;18.29;0.73
76200;SPS30;64981;52.930;9.266;2023-05-29T08:30:35;4.89;4.52;3.79;2.73;21.84;21.78;21.60;20.67;16.50;0.74
76200;SPS30;64981;52.930;9.266;2023-05-29T08:33:02;5.49;5.07;4.25;3.06;24.45;24.39;24.18;23.13;18.45;0.74
76200;SPS30;64981;52.930;9.266;2023-05-29T08:35:28;5.37;4.94;4.09;2.88;23.00;22.94;22.72;21.65;17.11;0.75
76200;SPS30;64981;52.930;9.266;2023-05-29T08:37:54;5.63;5.20;4.36;3.15;25.18;25.12;24.90;23.84;19.04;0.73
76200;SPS30;64981;52.930;9.266;2023-05-29T08:40:19;5.29;4.89;4.07;2.91;23.25;23.19;22.98;21.96;17.46;0.75
76200;SPS30;64981;52.930;9.266;2023-05-29T08:42:47;5.91;5.41;4.43;3.04;24.31;24.24;23.99;22.76;17.80;0.77
76200;SPS30;64981;52.930;9.266;2023-05-29T08:45:18;6.00;5.51;4.54;3.16;25.26;25.19;24.94;23.72;18.66;0.76
76200;SPS30;64981;52.930;9.266;2023-05-29T08:47:47;5.98;5.48;4.49;3.09;24.73;24.66;24.41;23.17;18.15;0.77
76200;SPS30;64981;52.930;9.266;2023-05-29T08:50:18;5.40;4.94;4.04;2.77;22.18;22.11;21.88;20.76;16.23;0.77
76200;SPS30;64981;52.930;9.266;2023-05-29T08:52:46;5.31;4.88;4.03;2.82;22.54;22.48;22.26;21.19;16.70;0.75
76200;SPS30;64981;52.930;9.266;2023-05-29T08:55:13;5.63;5.19;4.31;3.06;24.44;24.38;24.15;23.05;18.28;0.73
76200;SPS30;64981;52.930;9.266;2023-05-29T08:57:40;5.30;4.91;4.14;3.02;24.11;24.06;23.86;22.88;18.34;0.72
76200;SPS30;64981;52.930;9.266;2023-05-29T09:00:08;5.15;4.76;3.98;2.86;22.88;22.83;22.63;21.65;17.26;0.75
76200;SPS30;64981;52.930;9.266;2023-05-29T09:02:38;5.51;5.08;4.21;2.97;23.77;23.70;23.48;22.39;17.72;0.76
76200;SPS30;64981;52.930;9.266;2023-05-29T09:05:05;5.43;5.02;4.19;3.00;24.00;23.94;23.73;22.68;18.06;0.74
76200;SPS30;64981;52.930;9.266;2023-05-29T09:07:32;5.46;5.04;4.19;2.97;23.77;23.71;23.49;22.42;17.78;0.74
76200;SPS30;64981;52.930;9.266;2023-05-29T09:09:58;5.57;5.15;4.31;3.10;24.81;24.75;24.53;23.47;18.72;0.73
76200;SPS30;64981;52.930;9.266;2023-05-29T09:12:24;5.53;5.11;4.28;3.07;24.59;24.53;24.31;23.26;18.55;0.72
76200;SPS30;64981;52.930;9.266;2023-05-29T09:14:50;4.86;4.54;3.89;2.92;23.36;23.31;23.15;22.31;18.10;0.71
76200;SPS30;64981;52.930;9.266;2023-05-29T09:17:15;4.96;4.61;3.92;2.91;23.28;23.23;23.05;22.17;17.90;0.72